Time;durP1;ratioP1;P1;durP2;ratioP2;P2;SDS_P1;SDS_P2;PMS_P1;PMS_P2;Temp;Humidity;BMP_temperature;BMP_pressure;BME280_temperature;BME280_humidity;BME280_pressure;Samples;Min_cycle;Max_cycle;Signal;HPM_P1;HPM_P2
2021/12/21 00:00:48;;;;;;;30.83;12.65;;;;;;;2.75;73.46;102941.78;4937438;28;20593;-60
2021/12/21 00:03:13;;;;;;;35.75;12.20;;;;;;;2.69;74.56;102944.78;4934475;28;20047;-59
2021/12/21 00:05:40;;;;;;;26.20;11.85;;;;;;;2.65;74.23;102942.75;4935167;28;20050;-59
2021/12/21 00:08:10;;;;;;;30.02;12.80;;;;;;;2.63;74.38;102952.03;4926843;28;20053;-57
2021/12/21 00:10:37;;;;;;;26.83;12.73;;;;;;;2.64;73.96;102951.25;4934546;28;20046;-59
2021/12/21 00:23:29;;;;;;;38.30;14.35;;;;;;;2.53;74.13;102951.19;4937345;28;20599;-59
2021/12/21 00:26:06;;;;;;;32.67;11.88;;;;;;;2.55;73.98;102949.66;4932889;28;20105;-59
2021/12/21 00:28:38;;;;;;;31.48;12.55;;;;;;;2.61;74.72;102958.75;4940345;28;20504;-61
2021/12/21 00:31:04;;;;;;;32.60;12.80;;;;;;;2.60;74.88;102949.25;4934276;28;20580;-59
2021/12/21 00:33:29;;;;;;;27.70;12.13;;;;;;;2.57;74.03;102942.94;4937203;28;20039;-61
2021/12/21 00:35:55;;;;;;;26.60;11.98;;;;;;;2.53;74.38;102940.91;4945896;28;20594;-60
2021/12/21 00:38:20;;;;;;;29.38;11.98;;;;;;;2.54;73.96;102934.97;4940777;28;20566;-59
2021/12/21 00:40:46;;;;;;;29.58;11.70;;;;;;;2.52;74.59;102932.28;4940868;28;20851;-59
2021/12/21 00:43:11;;;;;;;29.92;11.40;;;;;;;2.49;74.18;102934.63;4935521;28;20051;-59
2021/12/21 00:45:36;;;;;;;32.10;12.05;;;;;;;2.50;74.47;102928.69;4928250;28;20459;-60
2021/12/21 00:48:02;;;;;;;28.35;12.95;;;;;;;2.49;74.21;102928.59;4940643;28;20267;-60
2021/12/21 00:50:29;;;;;;;28.80;11.60;;;;;;;2.45;74.24;102930.91;4943542;28;20038;-59
2021/12/21 00:52:54;;;;;;;27.70;11.43;;;;;;;2.43;74.40;102926.44;4940569;28;20047;-59
2021/12/21 00:55:25;;;;;;;30.00;11.52;;;;;;;2.40;74.71;102928.75;4935208;28;20065;-59
2021/12/21 00:57:50;;;;;;;31.13;11.68;;;;;;;2.36;74.54;102921.56;4926282;28;21468;-59
2021/12/21 01:00:18;;;;;;;31.35;12.57;;;;;;;2.31;74.00;102920.31;4938405;28;20186;-59
2021/12/21 01:02:43;;;;;;;29.10;11.48;;;;;;;2.30;74.68;102927.13;4934970;28;20503;-59
2021/12/21 01:05:20;;;;;;;28.55;11.40;;;;;;;2.25;74.50;102927.56;4939335;28;20043;-60
2021/12/21 01:07:49;;;;;;;27.85;11.07;;;;;;;2.24;73.81;102923.19;4935586;28;20046;-59
2021/12/21 01:10:46;;;;;;;24.60;10.25;;;;;;;2.24;73.53;102915.47;4935388;28;20376;-59
2021/12/21 01:13:53;;;;;;;25.40;10.45;;;;;;;2.26;73.84;102907.06;4936173;28;20089;-59
2021/12/21 01:16:14;;;;;;;29.88;11.15;;;;;;;2.27;73.98;102911.44;4951150;28;20435;-59
2021/12/21 01:19:30;;;;;;;28.10;10.68;;;;;;;2.29;74.12;102914.13;4933684;28;20070;-59
2021/12/21 01:21:33;;;;;;;30.27;10.98;;;;;;;2.32;74.25;102912.69;4928859;28;20057;-59
2021/12/21 01:24:18;;;;;;;29.73;10.65;;;;;;;2.29;74.60;102912.47;4930760;28;20715;-59
2021/12/21 01:32:05;;;;;;;29.27;11.30;;;;;;;2.21;74.32;102902.31;4923504;28;20129;-58
2021/12/21 01:37:15;;;;;;;28.05;12.85;;;;;;;2.15;75.14;102897.59;4944309;28;20133;-58
2021/12/21 01:49:50;;;;;;;30.83;12.30;;;;;;;2.07;74.97;102898.69;4936328;28;20129;-61
2021/12/21 01:52:32;;;;;;;27.15;11.02;;;;;;;2.06;74.76;102896.88;4936118;28;20065;-59
2021/12/21 01:54:58;;;;;;;27.88;11.45;;;;;;;2.03;74.75;102897.53;4954987;28;20540;-60
2021/12/21 01:57:23;;;;;;;27.35;10.63;;;;;;;1.97;74.04;102897.03;4934017;28;21368;-60
2021/12/21 01:59:49;;;;;;;30.05;11.77;;;;;;;1.90;74.86;102893.84;4936690;28;20038;-60
2021/12/21 02:02:16;;;;;;;25.30;11.75;;;;;;;1.86;73.88;102900.44;4932408;28;20043;-58
2021/12/21 02:04:43;;;;;;;29.35;11.85;;;;;;;1.80;74.76;102897.38;4935327;28;20042;-60
2021/12/21 02:07:09;;;;;;;29.95;11.82;;;;;;;1.79;74.25;102898.13;4945247;28;20429;-58
2021/12/21 02:09:38;;;;;;;28.48;11.55;;;;;;;1.78;74.50;102898.00;4927556;28;20042;-58
2021/12/21 02:12:10;;;;;;;32.33;11.23;;;;;;;1.72;74.23;102893.25;4941412;28;20042;-58
2021/12/21 02:14:37;;;;;;;25.80;11.40;;;;;;;1.71;74.44;102890.59;4938480;28;20039;-58
2021/12/21 02:20:10;;;;;;;26.80;10.55;;;;;;;1.65;73.70;102892.66;4923932;28;20504;-59
2021/12/21 02:22:41;;;;;;;29.63;11.43;;;;;;;1.58;74.76;102889.59;4941991;28;20054;-59
2021/12/21 02:30:43;;;;;;;28.33;10.95;;;;;;;1.54;74.57;102882.38;4932883;28;20049;-59
2021/12/21 02:33:09;;;;;;;27.25;10.88;;;;;;;1.53;74.64;102885.72;4936522;28;20047;-58
2021/12/21 02:35:35;;;;;;;24.40;11.25;;;;;;;1.49;74.23;102883.69;4934096;28;20046;-59
2021/12/21 02:38:00;;;;;;;27.20;10.15;;;;;;;1.48;74.45;102886.13;4936720;28;20589;-58
2021/12/21 02:40:26;;;;;;;36.63;10.50;;;;;;;1.46;74.50;102887.69;4940404;28;20051;-58
2021/12/21 02:42:51;;;;;;;24.45;10.20;;;;;;;1.42;74.55;102885.63;4939919;28;20062;-58
2021/12/21 02:45:16;;;;;;;40.63;12.20;;;;;;;1.37;74.74;102884.34;4926942;28;20054;-60
2021/12/21 02:47:42;;;;;;;29.77;10.93;;;;;;;1.33;74.84;102893.50;4925463;28;20101;-59
2021/12/21 02:50:15;;;;;;;28.08;10.85;;;;;;;1.35;74.32;102884.22;4941139;28;20050;-59
2021/12/21 02:52:41;;;;;;;24.73;11.18;;;;;;;1.31;74.85;102889.00;4937192;28;20047;-58
2021/12/21 02:55:07;;;;;;;24.48;10.85;;;;;;;1.28;74.26;102887.06;4929281;28;20058;-58
2021/12/21 02:57:32;;;;;;;23.45;10.98;;;;;;;1.26;74.58;102887.72;4932650;28;20503;-60
2021/12/21 03:00:00;;;;;;;29.55;10.85;;;;;;;1.26;75.10;102891.19;4932375;28;20054;-59
2021/12/21 03:02:26;;;;;;;25.08;10.68;;;;;;;1.24;74.64;102885.03;4938288;28;20050;-59
2021/12/21 03:04:52;;;;;;;29.63;11.90;;;;;;;1.18;74.48;102893.13;4938928;28;20049;-59
2021/12/21 03:08:22;;;;;;;29.17;11.65;;;;;;;1.14;75.05;102891.06;4942014;28;20501;-59
2021/12/21 03:10:15;;;;;;;23.45;9.95;;;;;;;1.18;74.66;102890.56;4929598;28;20643;-59
2021/12/21 03:15:25;;;;;;;24.73;10.18;;;;;;;1.14;74.88;102887.59;4938937;28;20416;-58
2021/12/21 03:17:51;;;;;;;25.90;10.52;;;;;;;1.16;74.73;102893.75;4936869;28;20046;-59
2021/12/21 03:20:18;;;;;;;23.20;10.85;;;;;;;1.08;74.68;102888.00;4936785;28;20117;-59
2021/12/21 03:22:44;;;;;;;25.02;10.63;;;;;;;1.05;74.65;102885.16;4936055;28;20071;-58
2021/12/21 03:25:10;;;;;;;20.92;9.90;;;;;;;1.07;74.56;102882.72;4938064;28;20513;-59
2021/12/21 03:27:35;;;;;;;25.33;10.63;;;;;;;1.01;74.65;102882.22;4924806;28;20031;-59
2021/12/21 03:30:01;;;;;;;20.95;10.30;;;;;;;1.02;74.14;102890.06;4934794;28;20058;-57
2021/12/21 03:32:26;;;;;;;25.75;10.98;;;;;;;0.96;74.52;102874.13;4937957;28;20518;-57
2021/12/21 03:34:52;;;;;;;22.92;10.85;;;;;;;0.94;75.21;102879.91;4953887;28;20038;-57
2021/12/21 03:37:17;;;;;;;25.42;10.55;;;;;;;0.92;74.85;102878.88;4935484;28;20410;-58
2021/12/21 03:39:45;;;;;;;21.63;9.85;;;;;;;0.92;75.05;102882.31;4933583;28;20078;-60
2021/12/21 03:42:13;;;;;;;19.95;10.32;;;;;;;0.87;75.13;102877.59;4938020;28;20047;-59
2021/12/21 03:44:42;;;;;;;24.88;9.70;;;;;;;0.84;75.21;102877.34;4932221;28;20035;-59
2021/12/21 03:47:10;;;;;;;20.90;9.48;;;;;;;0.82;74.18;102872.97;4941090;28;20047;-59
2021/12/21 03:52:14;;;;;;;20.77;10.35;;;;;;;0.77;75.40;102876.81;4923231;28;20613;-58
2021/12/21 03:54:41;;;;;;;17.20;8.77;;;;;;;0.79;74.88;102875.25;4929988;28;20043;-59
2021/12/21 03:57:06;;;;;;;19.20;8.60;;;;;;;0.81;74.39;102868.59;4939838;28;20055;-59
2021/12/21 03:59:32;;;;;;;21.63;9.77;;;;;;;0.77;75.39;102864.00;4930213;28;20046;-59
2021/12/21 04:01:58;;;;;;;22.77;8.50;;;;;;;0.76;74.75;102861.28;4932051;28;20047;-59
2021/12/21 04:04:24;;;;;;;20.85;9.52;;;;;;;0.76;75.06;102866.41;4937077;28;20093;-59
2021/12/21 04:06:50;;;;;;;22.17;9.15;;;;;;;0.73;75.00;102856.78;4937984;28;20073;-58
2021/12/21 04:09:16;;;;;;;23.17;10.07;;;;;;;0.73;74.91;102863.63;4940941;28;20566;-59
2021/12/21 04:11:42;;;;;;;20.60;10.43;;;;;;;0.75;75.03;102854.34;4926364;28;20043;-59
2021/12/21 04:14:07;;;;;;;29.13;11.52;;;;;;;0.78;75.01;102860.66;4925274;28;20062;-59
2021/12/21 04:16:33;;;;;;;21.90;9.18;;;;;;;0.82;75.20;102856.66;4938061;28;20188;-59
2021/12/21 04:18:58;;;;;;;23.85;10.07;;;;;;;0.81;74.63;102844.59;4937393;28;20319;-58
2021/12/21 04:21:25;;;;;;;24.27;10.63;;;;;;;0.77;74.68;102845.13;4936477;28;20402;-60
2021/12/21 04:23:51;;;;;;;28.77;11.95;;;;;;;0.77;75.42;102843.44;4917306;28;21337;-58
2021/12/21 04:26:16;;;;;;;28.25;11.55;;;;;;;0.80;75.82;102846.25;4935545;28;20339;-60
2021/12/21 04:28:42;;;;;;;24.60;10.25;;;;;;;0.87;74.67;102832.25;4925880;28;20031;-59
2021/12/21 04:31:10;;;;;;;21.58;9.95;;;;;;;0.83;74.39;102840.50;4939132;28;20482;-60
2021/12/21 04:33:36;;;;;;;18.88;9.02;;;;;;;0.79;75.01;102838.44;4931522;28;20086;-60
2021/12/21 04:36:02;;;;;;;24.80;10.13;;;;;;;0.73;74.95;102843.06;4949953;28;20473;-57
2021/12/21 04:38:32;;;;;;;22.67;10.50;;;;;;;0.72;74.99;102847.31;4934096;28;20414;-59
2021/12/21 04:41:06;;;;;;;30.85;11.90;;;;;;;0.71;75.21;102847.16;4923794;28;20058;-61
2021/12/21 04:43:31;;;;;;;29.40;12.77;;;;;;;0.73;75.41;102850.78;4923426;28;20046;-59
2021/12/21 04:45:57;;;;;;;24.30;12.32;;;;;;;0.76;75.52;102851.00;4935659;28;20066;-59
2021/12/21 04:48:22;;;;;;;29.88;12.02;;;;;;;0.78;75.28;102846.91;4937726;28;20762;-58
2021/12/21 04:50:48;;;;;;;30.35;12.23;;;;;;;0.78;75.17;102846.91;4933330;28;20138;-59
2021/12/21 04:53:14;;;;;;;26.38;12.38;;;;;;;0.78;75.20;102849.50;4943667;28;20074;-58
2021/12/21 04:55:40;;;;;;;25.60;10.70;;;;;;;0.79;74.97;102848.72;4918152;28;20053;-59
2021/12/21 04:58:06;;;;;;;25.70;10.95;;;;;;;0.76;75.12;102840.75;4941360;28;20055;-58
2021/12/21 05:00:32;;;;;;;27.02;10.57;;;;;;;0.71;75.20;102848.06;4945465;28;20055;-58
2021/12/21 05:02:57;;;;;;;29.85;13.40;;;;;;;0.68;75.33;102845.22;4942391;28;20039;-59
2021/12/21 05:05:23;;;;;;;29.48;11.93;;;;;;;0.72;75.24;102842.16;4940936;28;20125;-58
2021/12/21 05:07:54;;;;;;;26.10;10.38;;;;;;;0.73;74.92;102845.66;4935130;28;20047;-58
2021/12/21 05:10:20;;;;;;;21.40;10.05;;;;;;;0.67;74.57;102842.56;4954501;28;20042;-59
2021/12/21 05:12:46;;;;;;;27.52;11.80;;;;;;;0.62;75.06;102838.69;4940186;28;20646;-58
2021/12/21 05:15:12;;;;;;;25.83;11.38;;;;;;;0.57;74.96;102833.16;4940766;28;20047;-58
2021/12/21 05:17:37;;;;;;;26.48;11.23;;;;;;;0.57;74.96;102840.88;4928234;28;20133;-59
2021/12/21 05:20:03;;;;;;;23.50;11.07;;;;;;;0.60;75.26;102833.44;4939547;28;20050;-59
2021/12/21 05:22:29;;;;;;;27.10;10.98;;;;;;;0.60;74.95;102835.09;4927701;28;20170;-58
2021/12/21 05:24:54;;;;;;;23.40;10.88;;;;;;;0.55;75.13;102838.97;4945092;28;20055;-60
2021/12/21 05:27:21;;;;;;;28.75;11.02;;;;;;;0.51;74.82;102835.22;4934002;28;20043;-57
2021/12/21 05:29:46;;;;;;;25.58;11.68;;;;;;;0.53;74.71;102838.81;4934599;28;20413;-59
2021/12/21 05:32:12;;;;;;;26.75;11.85;;;;;;;0.52;74.70;102839.59;4933856;28;20057;-61
2021/12/21 05:34:38;;;;;;;29.45;13.25;;;;;;;0.55;75.57;102836.38;4940068;28;20129;-58
2021/12/21 05:37:06;;;;;;;36.72;14.25;;;;;;;0.55;75.49;102833.81;4934293;28;20049;-59
2021/12/21 05:39:42;;;;;;;34.85;14.63;;;;;;;0.58;75.41;102836.63;4929516;28;20054;-61
2021/12/21 05:42:07;;;;;;;32.90;14.85;;;;;;;0.65;75.85;102833.81;4939943;28;20053;-59
2021/12/21 05:44:39;;;;;;;33.05;16.25;;;;;;;0.65;76.16;102831.25;4934382;28;20075;-58
2021/12/21 05:47:04;;;;;;;27.77;13.63;;;;;;;0.70;75.45;102833.44;4942187;28;20421;-56
2021/12/21 05:49:33;;;;;;;34.25;14.77;;;;;;;0.69;75.22;102838.44;4927489;28;20050;-62
2021/12/21 05:51:59;;;;;;;29.23;13.73;;;;;;;0.70;75.25;102838.56;4933803;28;20089;-58
2021/12/21 05:54:24;;;;;;;36.88;16.45;;;;;;;0.66;75.47;102836.53;4940372;28;20050;-57
2021/12/21 05:56:50;;;;;;;38.58;16.33;;;;;;;0.66;75.69;102843.31;4943338;28;20137;-58
2021/12/21 05:59:15;;;;;;;38.38;17.77;;;;;;;0.69;76.62;102839.31;4942174;28;20042;-59
2021/12/21 06:01:40;;;;;;;42.70;17.90;;;;;;;0.79;76.53;102849.59;4926709;28;20130;-57
2021/12/21 06:04:06;;;;;;;42.40;18.67;;;;;;;0.81;76.67;102842.94;4943420;28;20145;-58
2021/12/21 06:06:32;;;;;;;41.78;18.95;;;;;;;0.84;76.19;102847.44;4934619;28;20172;-59
2021/12/21 06:09:01;;;;;;;36.08;16.67;;;;;;;0.83;76.21;102845.63;4942182;28;20041;-58
2021/12/21 06:11:26;;;;;;;37.33;16.48;;;;;;;0.78;75.69;102846.91;4938191;28;20050;-57
2021/12/21 06:14:14;;;;;;;35.78;14.93;;;;;;;0.78;75.63;102846.91;4934180;28;20531;-58
2021/12/21 06:27:06;;;;;;;46.03;18.52;;;;;;;0.58;76.51;102842.66;4937873;28;20089;-59
2021/12/21 06:29:32;;;;;;;36.47;15.25;;;;;;;0.62;75.78;102839.56;4919902;28;20038;-59
2021/12/21 06:31:57;;;;;;;31.38;14.10;;;;;;;0.57;75.15;102838.28;4937129;28;20141;-56
2021/12/21 06:34:23;;;;;;;32.15;14.77;;;;;;;0.48;75.11;102839.19;4938911;28;20207;-57
2021/12/21 06:36:49;;;;;;;28.13;13.63;;;;;;;0.41;74.64;102832.66;4936688;28;20428;-57
2021/12/21 06:39:14;;;;;;;31.13;15.02;;;;;;;0.36;75.10;102831.38;4941619;28;20047;-58
2021/12/21 06:41:40;;;;;;;34.92;15.15;;;;;;;0.35;74.59;102839.81;4934397;28;20097;-59
2021/12/21 06:44:08;;;;;;;31.27;14.77;;;;;;;0.34;74.56;102831.22;4935359;28;20599;-57
2021/12/21 06:51:54;;;;;;;;;;;;;;;0.42;76.06;102842.16;4933108;28;20238;-59
2021/12/21 06:54:20;;;;;;;36.22;16.10;;;;;;;0.49;75.90;102844.44;4939823;28;20160;-58
2021/12/21 06:56:46;;;;;;;40.40;17.63;;;;;;;0.53;76.24;102838.81;4941553;28;20451;-59
2021/12/21 06:59:11;;;;;;;39.30;17.23;;;;;;;0.54;76.04;102832.03;4928168;28;20257;-56
2021/12/21 07:01:40;;;;;;;47.17;19.20;;;;;;;0.56;76.38;102838.16;4934263;28;20086;-59
2021/12/21 07:04:21;;;;;;;42.05;20.42;;;;;;;0.60;76.41;102837.66;4937561;28;20481;-57
2021/12/21 07:06:47;;;;;;;48.45;20.23;;;;;;;0.62;76.99;102828.41;4934628;28;20513;-57
2021/12/21 07:09:22;;;;;;;39.72;19.48;;;;;;;0.60;76.51;102833.44;4927913;28;20050;-57
2021/12/21 07:20:12;;;;;;;29.27;13.57;;;;;;;0.48;74.61;102847.81;4936945;28;20572;-57
2021/12/21 07:22:37;;;;;;;28.88;13.60;;;;;;;0.40;74.25;102842.00;4936118;28;20039;-56
2021/12/21 07:25:03;;;;;;;37.05;17.42;;;;;;;0.36;75.06;102847.66;4929238;28;20585;-59
2021/12/21 07:27:28;;;;;;;35.78;16.35;;;;;;;0.36;75.20;102857.91;4936885;28;20586;-56
2021/12/21 07:29:54;;;;;;;46.38;18.88;;;;;;;0.34;75.52;102855.97;4927643;28;20047;-56
2021/12/21 07:32:19;;;;;;;47.15;19.83;;;;;;;0.33;75.46;102849.03;4926254;28;20639;-59
2021/12/21 07:34:44;;;;;;;40.55;17.55;;;;;;;0.32;75.62;102850.72;4935348;28;20699;-58
2021/12/21 07:37:10;;;;;;;39.40;16.65;;;;;;;0.31;75.52;102855.69;4932124;28;20530;-56
2021/12/21 07:39:36;;;;;;;36.10;15.73;;;;;;;0.32;75.09;102852.38;4924048;28;20101;-58
2021/12/21 07:42:02;;;;;;;31.10;14.90;;;;;;;0.31;75.05;102850.56;4940966;28;20343;-59
2021/12/21 07:44:28;;;;;;;44.45;20.10;;;;;;;0.25;75.56;102840.69;4929169;28;20047;-59
2021/12/21 07:46:53;;;;;;;43.72;20.60;;;;;;;0.30;75.60;102844.56;4941663;28;20043;-57
2021/12/21 07:49:31;;;;;;;36.53;19.30;;;;;;;0.36;75.58;102839.97;4929964;28;20053;-56
2021/12/21 07:51:57;;;;;;;41.80;18.60;;;;;;;0.38;75.96;102840.97;4936722;28;20117;-56
2021/12/21 07:54:22;;;;;;;48.95;20.55;;;;;;;0.36;76.16;102849.31;4938072;28;20047;-57
2021/12/21 07:56:48;;;;;;;45.70;19.70;;;;;;;0.39;75.75;102855.59;4936531;28;20085;-56
2021/12/21 07:59:13;;;;;;;38.53;17.25;;;;;;;0.44;75.68;102857.66;4939096;28;20521;-58
2021/12/21 08:01:39;;;;;;;37.80;17.17;;;;;;;0.43;75.57;102859.31;4925397;28;20051;-57
2021/12/21 08:04:07;;;;;;;38.55;18.48;;;;;;;0.42;75.69;102854.06;4927513;28;20334;-58
2021/12/21 08:06:34;;;;;;;37.58;17.35;;;;;;;0.42;75.16;102854.97;4934699;28;20055;-58
2021/12/21 08:09:01;;;;;;;35.08;16.80;;;;;;;0.39;75.06;102858.16;4937762;28;20106;-59
2021/12/21 08:14:18;;;;;;;41.78;18.65;;;;;;;0.38;75.53;102865.72;4932205;28;20393;-58
2021/12/21 08:16:43;;;;;;;38.97;16.60;;;;;;;0.43;75.71;102868.72;4935755;28;20035;-57
2021/12/21 08:19:15;;;;;;;39.67;17.92;;;;;;;0.43;75.67;102868.72;4933299;28;20190;-58
2021/12/21 08:21:40;;;;;;;42.00;18.35;;;;;;;0.42;75.64;102883.19;4932871;28;20058;-57
2021/12/21 08:24:06;;;;;;;41.83;19.13;;;;;;;0.46;75.67;102885.25;4930865;28;20673;-58
2021/12/21 08:26:31;;;;;;;43.75;20.80;;;;;;;0.48;75.64;102891.44;4938192;28;20129;-58
2021/12/21 08:28:56;;;;;;;37.38;19.17;;;;;;;0.61;75.66;102893.38;4929300;28;20043;-58
2021/12/21 08:31:22;;;;;;;36.63;18.65;;;;;;;0.66;75.84;102894.66;4935930;28;20041;-58
2021/12/21 08:33:47;;;;;;;41.08;20.30;;;;;;;0.64;75.61;102896.19;4932056;28;20132;-57
2021/12/21 08:36:12;;;;;;;47.92;20.38;;;;;;;0.68;75.74;102901.69;4932615;28;20122;-57
2021/12/21 08:38:42;;;;;;;42.42;19.98;;;;;;;0.75;75.73;102895.41;4930598;28;20117;-60
2021/12/21 08:41:07;;;;;;;39.47;19.17;;;;;;;0.79;75.79;102893.22;4941239;28;20061;-59
2021/12/21 08:43:35;;;;;;;41.80;20.25;;;;;;;0.94;76.07;102900.44;4935726;28;20047;-57
2021/12/21 08:46:00;;;;;;;38.28;19.15;;;;;;;1.03;76.05;102898.66;4937996;28;20058;-58
2021/12/21 08:48:26;;;;;;;42.63;19.92;;;;;;;1.11;76.02;102889.91;4930370;28;20745;-58
2021/12/21 08:50:54;;;;;;;45.67;22.60;;;;;;;1.17;76.04;102886.19;4932361;28;20043;-58
2021/12/21 08:53:21;;;;;;;47.58;21.98;;;;;;;1.25;76.06;102883.34;4938647;28;20498;-58
2021/12/21 08:55:46;;;;;;;43.33;21.90;;;;;;;1.29;76.24;102877.69;4928270;28;20850;-58
2021/12/21 08:58:13;;;;;;;42.92;20.92;;;;;;;1.39;75.81;102878.59;4934263;28;20138;-59
2021/12/21 09:00:40;;;;;;;46.65;22.45;;;;;;;1.42;75.81;102880.50;4935974;28;20383;-59
2021/12/21 09:03:06;;;;;;;44.15;21.33;;;;;;;1.56;75.47;102878.28;4933492;28;20246;-58
2021/12/21 09:05:32;;;;;;;43.28;21.48;;;;;;;1.60;75.42;102874.28;4923784;28;21123;-58
2021/12/21 09:07:58;;;;;;;42.40;22.10;;;;;;;1.62;74.93;102881.34;4931698;28;20498;-57
2021/12/21 09:10:24;;;;;;;42.80;20.83;;;;;;;1.69;75.25;102876.72;4930689;28;20043;-60
2021/12/21 09:12:51;;;;;;;40.97;20.88;;;;;;;1.78;75.24;102878.34;4939487;28;20070;-58
2021/12/21 09:15:17;;;;;;;42.75;20.75;;;;;;;1.83;75.08;102884.72;4938993;28;20789;-59
2021/12/21 09:17:44;;;;;;;39.53;19.15;;;;;;;1.94;75.10;102877.91;4934829;28;20043;-57
2021/12/21 09:20:12;;;;;;;40.30;20.80;;;;;;;2.00;74.87;102876.72;4925133;28;20353;-58
2021/12/21 09:22:38;;;;;;;42.95;21.45;;;;;;;2.02;74.05;102882.88;4941313;28;20043;-59
2021/12/21 09:25:04;;;;;;;46.08;20.35;;;;;;;2.11;74.00;102876.66;4941094;28;20074;-58
2021/12/21 09:27:29;;;;;;;42.47;19.38;;;;;;;2.16;73.99;102877.91;4925183;28;20363;-57
2021/12/21 09:29:55;;;;;;;40.80;19.77;;;;;;;2.24;74.25;102884.56;4940315;28;20455;-59
2021/12/21 09:32:20;;;;;;;36.63;18.92;;;;;;;2.28;74.09;102876.31;4927259;28;20050;-59
2021/12/21 09:34:46;;;;;;;38.83;20.10;;;;;;;2.34;74.09;102869.06;4924370;28;20051;-57
2021/12/21 09:37:19;;;;;;;39.92;20.45;;;;;;;2.36;73.84;102859.78;4929537;28;20445;-57
2021/12/21 09:39:53;;;;;;;38.17;20.13;;;;;;;2.40;74.16;102860.16;4931655;28;20046;-56
2021/12/21 09:42:21;;;;;;;41.15;20.95;;;;;;;2.55;74.59;102862.13;4940502;28;20126;-60
2021/12/21 09:44:47;;;;;;;39.92;20.25;;;;;;;2.59;73.55;102861.56;4934806;28;20039;-57
2021/12/21 09:47:13;;;;;;;40.53;20.48;;;;;;;2.68;73.76;102873.50;4945481;28;20487;-57
2021/12/21 09:49:39;;;;;;;38.58;19.88;;;;;;;2.78;73.86;102877.66;4926117;28;20962;-57
2021/12/21 09:52:06;;;;;;;39.33;19.65;;;;;;;2.81;73.40;102873.63;4929948;28;20458;-57
2021/12/21 09:54:36;;;;;;;38.33;19.23;;;;;;;2.76;72.47;102874.06;4937350;28;20047;-56
2021/12/21 09:57:02;;;;;;;38.28;18.75;;;;;;;2.75;73.02;102865.41;4936880;28;20066;-56
2021/12/21 09:59:29;;;;;;;38.75;20.30;;;;;;;2.80;72.36;102871.84;4938663;28;20692;-56
2021/12/21 10:01:56;;;;;;;38.15;18.90;;;;;;;2.86;71.55;102879.16;4931904;28;20042;-57
2021/12/21 10:04:22;;;;;;;40.28;18.02;;;;;;;2.81;70.76;102880.44;4930361;28;20400;-58
2021/12/21 10:06:51;;;;;;;40.17;19.27;;;;;;;2.89;71.33;102881.94;4935107;28;20035;-58
2021/12/21 10:09:19;;;;;;;38.78;18.73;;;;;;;2.94;71.90;102880.59;4932802;28;20049;-58
2021/12/21 10:11:47;;;;;;;41.17;19.08;;;;;;;2.91;71.48;102882.97;4929912;28;20066;-55
2021/12/21 10:14:14;;;;;;;41.65;19.23;;;;;;;2.94;71.29;102870.28;4934940;28;20041;-58
2021/12/21 10:16:40;;;;;;;36.95;20.25;;;;;;;2.96;71.50;102873.00;4927825;28;20055;-59
2021/12/21 10:19:06;;;;;;;44.30;20.08;;;;;;;3.00;72.38;102878.50;4933219;28;20069;-57
2021/12/21 10:21:31;;;;;;;40.13;20.00;;;;;;;2.98;72.58;102867.19;4925684;28;20346;-60
2021/12/21 10:23:57;;;;;;;40.70;19.42;;;;;;;3.00;71.30;102860.44;4944464;28;20043;-58
2021/12/21 10:26:23;;;;;;;42.83;19.40;;;;;;;3.01;71.03;102859.69;4932869;28;20046;-58
2021/12/21 10:28:51;;;;;;;41.83;20.55;;;;;;;3.03;71.50;102858.13;4934632;28;20047;-58
2021/12/21 10:31:27;;;;;;;45.35;19.85;;;;;;;3.09;70.68;102855.09;4932670;28;20067;-59
2021/12/21 10:33:54;;;;;;;38.20;19.25;;;;;;;3.00;70.33;102845.00;4931924;28;21609;-58
2021/12/21 10:36:19;;;;;;;35.70;17.60;;;;;;;3.02;69.99;102840.88;4935818;28;20494;-58
2021/12/21 10:38:51;;;;;;;43.05;18.67;;;;;;;3.09;70.14;102831.91;4937817;28;20405;-57
2021/12/21 10:41:41;;;;;;;39.08;19.05;;;;;;;3.11;70.64;102838.94;4927752;28;20049;-57
2021/12/21 10:44:11;;;;;;;40.35;18.77;;;;;;;3.10;70.41;102836.28;4928244;28;21575;-58
2021/12/21 10:46:39;;;;;;;37.22;17.38;;;;;;;3.11;69.95;102831.22;4934553;28;20039;-57
2021/12/21 10:49:10;;;;;;;36.50;17.05;;;;;;;3.07;69.10;102834.38;4937376;28;20126;-58
2021/12/21 10:51:36;;;;;;;39.13;17.75;;;;;;;3.07;69.71;102828.31;4930849;28;20928;-59
2021/12/21 10:54:02;;;;;;;36.45;17.98;;;;;;;3.09;70.07;102819.03;4938183;28;20541;-57
2021/12/21 10:56:28;;;;;;;33.83;17.58;;;;;;;3.14;69.20;102820.25;4934597;28;20408;-57
2021/12/21 10:58:54;;;;;;;38.72;18.25;;;;;;;3.19;69.98;102831.81;4937504;28;20128;-58
2021/12/21 11:01:26;;;;;;;41.08;18.45;;;;;;;3.30;70.00;102825.75;4938169;28;20634;-58
2021/12/21 11:03:54;;;;;;;35.90;18.05;;;;;;;3.23;68.87;102826.97;4928796;28;20645;-57
2021/12/21 11:06:32;;;;;;;43.97;19.00;;;;;;;3.30;69.75;102825.75;4933715;28;20046;-56
2021/12/21 11:08:58;;;;;;;45.80;20.67;;;;;;;3.34;69.48;102826.91;4937097;28;20077;-59
2021/12/21 11:11:32;;;;;;;45.40;19.52;;;;;;;3.38;70.21;102821.16;4931405;28;20468;-56
2021/12/21 11:14:19;;;;;;;41.95;20.48;;;;;;;3.39;70.08;102826.44;4937464;28;20173;-59
2021/12/21 11:16:51;;;;;;;43.67;23.05;;;;;;;3.44;68.74;102816.47;4934650;28;20108;-57
2021/12/21 11:19:20;;;;;;;42.25;23.50;;;;;;;3.52;68.80;102811.09;4931252;28;20037;-57
2021/12/21 11:21:46;;;;;;;44.20;24.85;;;;;;;3.53;68.57;102807.72;4924451;28;20636;-58
2021/12/21 11:24:14;;;;;;;46.17;24.05;;;;;;;3.52;68.50;102807.59;4927569;28;20499;-57
2021/12/21 11:26:41;;;;;;;48.42;25.55;;;;;;;3.56;68.59;102805.34;4931740;28;20137;-59
2021/12/21 11:29:14;;;;;;;39.40;21.95;;;;;;;3.55;68.35;102803.56;4927901;28;20051;-59
2021/12/21 11:31:42;;;;;;;40.63;20.13;;;;;;;3.59;67.87;102804.69;4928629;28;20592;-59
2021/12/21 11:34:17;;;;;;;33.97;15.23;;;;;;;3.62;66.56;102807.47;4925494;28;20035;-59
2021/12/21 11:39:32;;;;;;;29.65;14.27;;;;;;;3.57;62.67;102795.94;4932508;28;20609;-62
2021/12/21 11:42:00;;;;;;;33.47;14.90;;;;;;;3.73;64.03;102790.19;4937912;28;20043;-59
2021/12/21 11:44:51;;;;;;;29.70;15.07;;;;;;;3.78;63.98;102783.69;4938281;28;20526;-58
2021/12/21 11:47:48;;;;;;;34.63;16.95;;;;;;;3.82;64.85;102760.78;4938255;28;20046;-59
2021/12/21 11:50:13;;;;;;;33.78;17.27;;;;;;;3.89;64.46;102775.03;4926361;28;20165;-58
2021/12/21 11:52:44;;;;;;;30.83;16.90;;;;;;;3.91;66.00;102781.16;4932180;28;20738;-58
2021/12/21 11:55:10;;;;;;;29.23;14.95;;;;;;;3.94;65.89;102782.28;4939421;28;20050;-57
2021/12/21 11:57:41;;;;;;;33.60;14.57;;;;;;;3.97;65.41;102785.06;4922680;28;20043;-59
2021/12/21 12:00:19;;;;;;;29.05;14.15;;;;;;;3.93;64.15;102792.50;4926468;28;20054;-59
2021/12/21 12:02:45;;;;;;;25.73;14.63;;;;;;;4.03;65.10;102780.34;4928777;28;20673;-59
2021/12/21 12:05:19;;;;;;;29.33;13.57;;;;;;;4.06;64.28;102782.25;4929404;28;20061;-58
2021/12/21 12:07:44;;;;;;;26.08;12.05;;;;;;;4.04;62.13;102778.66;4935353;28;20043;-57
2021/12/21 12:10:15;;;;;;;28.00;12.60;;;;;;;4.16;63.71;102771.75;4939037;28;20035;-59
2021/12/21 12:12:40;;;;;;;23.40;12.00;;;;;;;4.20;61.67;102771.22;4940802;28;20790;-59
2021/12/21 12:15:09;;;;;;;23.48;12.50;;;;;;;4.30;63.18;102767.56;4938478;28;20589;-58
2021/12/21 12:17:51;;;;;;;24.30;11.75;;;;;;;4.38;61.75;102763.81;4919414;28;20100;-64
2021/12/21 12:20:25;;;;;;;19.00;9.70;;;;;;;4.42;59.58;102758.97;4941994;28;20058;-57
2021/12/21 12:23:03;;;;;;;21.67;10.00;;;;;;;4.46;59.77;102760.94;4933893;28;20138;-59
2021/12/21 12:25:28;;;;;;;20.85;10.00;;;;;;;4.49;60.21;102749.94;4928419;28;20051;-56
2021/12/21 12:27:54;;;;;;;19.77;9.75;;;;;;;4.56;60.73;102751.25;4936224;28;20493;-58
2021/12/21 12:30:25;;;;;;;17.52;8.70;;;;;;;4.57;60.52;102753.97;4940793;28;20493;-59
2021/12/21 12:33:02;;;;;;;17.45;8.45;;;;;;;4.52;58.68;102750.13;4940244;28;20042;-59